Time;durP1;ratioP1;P1;durP2;ratioP2;P2;SDS_P1;SDS_P2;PMS_P1;PMS_P2;Temp;Humidity;BMP_temperature;BMP_pressure;BME280_temperature;BME280_humidity;BME280_pressure;Samples;Min_cycle;Max_cycle;Signal;HPM_P1;HPM_P2
2022/11/03 00:00:48;;;;;;;81.50;45.20;;;;;;;7.96;77.79;99541.73;86029;1286;22504;-81
2022/11/03 00:02:50;;;;;;;79.80;45.10;;;;;;;7.93;77.97;99537.79;86036;1287;98495;-79
2022/11/03 00:04:52;;;;;;;75.90;46.20;;;;;;;7.87;77.92;99535.84;86193;1290;22919;-79
2022/11/03 00:06:54;;;;;;;79.30;44.20;;;;;;;7.88;77.98;99536.16;85961;1294;22607;-77
2022/11/03 00:08:57;;;;;;;73.00;44.80;;;;;;;7.85;77.83;99543.42;85894;1289;99237;-79
2022/11/03 00:11:05;;;;;;;81.50;44.90;;;;;;;7.82;78.05;99546.66;86075;1290;26535;-79
2022/11/03 00:13:06;;;;;;;84.90;44.10;;;;;;;7.80;78.06;99544.45;86189;1284;24409;-81
2022/11/03 00:15:09;;;;;;;85.40;44.60;;;;;;;7.77;78.05;99547.13;85989;1290;98199;-80
2022/11/03 00:17:11;;;;;;;90.40;45.40;;;;;;;7.72;77.98;99543.26;86095;1284;22465;-80
2022/11/03 00:19:15;;;;;;;81.90;44.40;;;;;;;7.72;78.06;99549.72;86171;1285;24282;-79
2022/11/03 00:21:17;;;;;;;80.40;44.80;;;;;;;7.70;78.26;99550.14;86072;1288;98437;-80
2022/11/03 00:23:19;;;;;;;76.30;43.70;;;;;;;7.67;78.18;99553.17;86170;1287;25218;-79
2022/11/03 00:25:20;;;;;;;71.50;41.30;;;;;;;7.65;78.17;99556.55;86307;1284;24260;-80
2022/11/03 00:27:22;;;;;;;83.50;43.90;;;;;;;7.63;78.27;99561.86;86038;1283;98124;-79
2022/11/03 00:29:24;;;;;;;82.50;44.00;;;;;;;7.60;78.20;99561.75;86068;1282;22633;-78
2022/11/03 00:31:27;;;;;;;76.30;42.30;;;;;;;7.59;77.95;99560.75;86227;1281;22632;-79
2022/11/03 00:33:32;;;;;;;77.70;43.40;;;;;;;7.57;78.01;99556.42;86106;1288;97994;-78
2022/11/03 00:35:34;;;;;;;80.80;40.90;;;;;;;7.52;78.53;99555.17;85975;1289;23784;-79
2022/11/03 00:37:36;;;;;;;72.60;42.40;;;;;;;7.51;78.37;99554.66;86197;1289;22490;-80
2022/11/03 00:39:37;;;;;;;71.30;40.70;;;;;;;7.49;78.35;99556.27;85977;1288;98083;-80
2022/11/03 00:41:40;;;;;;;79.60;42.60;;;;;;;7.47;78.49;99550.74;86064;1290;22473;-78
2022/11/03 00:43:42;;;;;;;68.20;42.40;;;;;;;7.43;78.42;99545.59;86039;1303;22587;-77
2022/11/03 00:45:44;;;;;;;81.50;42.30;;;;;;;7.37;78.28;99538.39;85784;1282;99031;-79
2022/11/03 00:50:07;;;;;;;84.60;43.60;;;;;;;7.38;78.63;99549.40;86042;1280;22539;-79
2022/11/03 00:52:08;;;;;;;68.50;41.30;;;;;;;7.37;78.60;99552.40;85862;1284;98166;-80
2022/11/03 00:54:10;;;;;;;67.50;40.30;;;;;;;7.34;78.63;99550.89;85953;1289;22589;-78
2022/11/03 00:56:14;;;;;;;72.80;42.70;;;;;;;7.32;78.29;99552.52;85906;1287;22469;-80
2022/11/03 00:58:16;;;;;;;81.20;43.30;;;;;;;7.30;78.64;99554.85;85932;1281;99352;-79
2022/11/03 01:00:18;;;;;;;66.30;39.60;;;;;;;7.28;78.80;99553.85;85989;1284;22449;-79
2022/11/03 01:02:19;;;;;;;69.00;39.20;;;;;;;7.21;78.55;99552.81;85986;1289;23095;-79
2022/11/03 01:06:51;;;;;;;66.50;40.20;;;;;;;7.09;78.41;99560.44;85901;1288;22593;-80
2022/11/03 01:08:53;;;;;;;71.00;40.20;;;;;;;7.03;78.25;99562.35;85883;1282;98155;-80
2022/11/03 01:13:16;;;;;;;64.20;40.00;;;;;;;6.93;78.54;99568.51;86035;1287;22487;-79
2022/11/03 01:15:17;;;;;;;66.80;38.00;;;;;;;6.90;78.65;99568.57;85932;1290;97981;-78
2022/11/03 01:17:26;;;;;;;67.90;38.80;;;;;;;6.86;78.05;99573.56;85950;1288;22468;-80
2022/11/03 01:19:28;;;;;;;63.20;36.10;;;;;;;6.83;78.44;99574.32;85886;1287;25242;-79
2022/11/03 01:21:29;;;;;;;70.30;39.30;;;;;;;6.78;78.27;99572.17;85983;1290;98289;-80
2022/11/03 01:23:34;;;;;;;71.30;38.30;;;;;;;6.76;78.56;99574.00;85916;1283;25277;-79
2022/11/03 01:25:43;;;;;;;69.90;40.90;;;;;;;6.72;78.43;99572.32;86126;1288;22483;-79
2022/11/03 01:27:44;;;;;;;82.30;42.20;;;;;;;6.70;78.82;99574.12;85751;1289;98022;-79
2022/11/03 01:29:46;;;;;;;71.50;40.90;;;;;;;6.68;78.68;99573.27;85945;1289;22625;-80
2022/11/03 01:31:48;;;;;;;86.70;44.50;;;;;;;6.67;78.53;99571.40;85819;1299;22594;-79
2022/11/03 01:33:51;;;;;;;82.50;46.00;;;;;;;6.62;78.77;99568.85;85931;1287;97889;-79
2022/11/03 01:35:53;;;;;;;75.30;44.80;;;;;;;6.67;78.89;99573.31;85997;1280;22516;-80
2022/11/03 01:37:57;;;;;;;77.30;45.70;;;;;;;6.68;78.68;99572.91;85883;1291;22563;-79
2022/11/03 01:40:00;;;;;;;82.90;42.30;;;;;;;6.70;78.97;99577.27;85871;1290;97936;-78
2022/11/03 01:42:02;;;;;;;75.30;41.90;;;;;;;6.68;78.66;99581.84;86099;1290;25368;-78
2022/11/03 01:44:31;;;;;;;75.70;43.10;;;;;;;6.68;79.02;99579.05;85817;1283;22604;-78
2022/11/03 01:46:43;;;;;;;70.10;39.70;;;;;;;6.66;79.07;99576.30;85861;1289;97988;-79
2022/11/03 01:49:07;;;;;;;65.90;38.70;;;;;;;6.63;78.76;99573.55;85944;1288;24346;-79
2022/11/03 01:51:11;;;;;;;69.80;37.90;;;;;;;6.60;78.68;99572.93;85907;1288;98049;-79
2022/11/03 01:53:15;;;;;;;75.50;38.80;;;;;;;6.57;79.07;99572.48;86382;1295;25295;-79
2022/11/03 01:55:35;;;;;;;76.00;38.80;;;;;;;6.54;78.75;99569.06;85963;1293;22565;-79
2022/11/03 01:57:52;;;;;;;59.80;38.80;;;;;;;6.45;78.59;99569.42;85876;1282;98010;-77
2022/11/03 01:59:57;;;;;;;64.80;37.50;;;;;;;6.38;78.61;99563.28;86110;1288;23096;-79
2022/11/03 02:01:58;;;;;;;63.20;36.20;;;;;;;6.33;78.70;99561.82;86019;1291;22512;-78
2022/11/03 02:04:09;;;;;;;58.80;36.40;;;;;;;6.28;78.81;99559.64;85825;1291;98918;-78
2022/11/03 02:06:12;;;;;;;59.90;34.40;;;;;;;6.21;78.44;99561.73;86042;1284;25613;-79
2022/11/03 02:08:26;;;;;;;60.40;35.80;;;;;;;6.14;78.38;99563.45;85973;1291;22614;-78
2022/11/03 02:10:28;;;;;;;56.20;31.60;;;;;;;6.09;78.53;99566.34;85929;1294;99777;-79
2022/11/03 02:12:31;;;;;;;52.30;31.80;;;;;;;6.01;78.55;99559.36;86091;1287;23216;-79
2022/11/03 02:14:37;;;;;;;58.70;32.60;;;;;;;5.95;78.57;99562.22;85821;1289;25397;-78
2022/11/03 02:16:43;;;;;;;54.10;31.10;;;;;;;5.89;78.46;99553.61;86015;1283;98805;-79
2022/11/03 02:18:46;;;;;;;59.10;33.20;;;;;;;5.83;78.48;99560.36;86010;1288;22695;-79
2022/11/03 02:21:13;;;;;;;59.90;31.80;;;;;;;5.78;78.40;99559.58;86172;1294;26667;-79
2022/11/03 02:23:25;;;;;;;51.20;32.00;;;;;;;5.71;78.41;99560.08;86140;1286;22984;-79
2022/11/03 02:25:39;;;;;;;54.50;33.30;;;;;;;5.64;78.33;99564.21;85947;1282;22526;-79
2022/11/03 02:27:41;;;;;;;64.40;33.30;;;;;;;5.58;78.47;99569.55;85951;1288;97924;-79
2022/11/03 02:29:43;;;;;;;60.20;36.10;;;;;;;5.55;78.52;99569.96;85995;1282;22538;-78
2022/11/03 02:31:57;;;;;;;67.20;36.50;;;;;;;5.53;78.80;99567.89;86185;1290;22539;-78
2022/11/03 02:34:29;;;;;;;68.50;38.40;;;;;;;5.51;78.88;99567.23;86392;1298;98213;-79
2022/11/03 02:36:36;;;;;;;67.90;37.20;;;;;;;5.55;78.97;99570.30;86059;1287;22555;-79
2022/11/03 02:38:53;;;;;;;70.60;38.60;;;;;;;5.57;79.13;99571.48;86026;1281;25372;-79
2022/11/03 02:40:59;;;;;;;70.50;39.30;;;;;;;5.59;79.21;99570.23;86006;1281;22552;-79
2022/11/03 02:43:04;;;;;;;68.80;39.80;;;;;;;5.59;79.04;99570.23;86017;1281;22583;-78
2022/11/03 02:45:09;;;;;;;67.60;37.00;;;;;;;5.57;79.07;99574.98;85850;1288;99202;-78
2022/11/03 02:47:13;;;;;;;60.00;35.80;;;;;;;5.55;79.10;99574.84;85983;1281;22505;-79
2022/11/03 02:49:15;;;;;;;60.30;34.50;;;;;;;5.56;79.11;99575.18;85934;1291;23199;-80
2022/11/03 02:51:16;;;;;;;65.10;36.20;;;;;;;5.55;79.07;99574.33;85943;1290;98368;-78
2022/11/03 02:53:18;;;;;;;66.50;37.40;;;;;;;5.54;79.15;99573.80;86040;1295;22555;-80
2022/11/03 02:55:38;;;;;;;63.70;36.70;;;;;;;5.54;79.16;99571.00;86102;1288;22719;-79
2022/11/03 02:58:04;;;;;;;55.60;33.30;;;;;;;5.55;79.22;99576.23;86151;1288;97905;-78
2022/11/03 03:00:08;;;;;;;59.80;34.70;;;;;;;5.52;79.21;99570.86;85931;1291;27104;-79
2022/11/03 03:02:16;;;;;;;62.90;35.40;;;;;;;5.51;79.24;99573.51;86059;1287;23669;-79
2022/11/03 03:04:31;;;;;;;70.20;34.50;;;;;;;5.52;79.21;99578.55;85873;1288;98166;-78
2022/11/03 03:06:38;;;;;;;69.10;33.60;;;;;;;5.51;79.35;99579.27;86006;1291;23082;-79
2022/11/03 03:08:45;;;;;;;56.90;32.90;;;;;;;5.51;79.31;99581.86;86126;1281;22630;-78
2022/11/03 03:10:47;;;;;;;62.80;31.50;;;;;;;5.51;79.20;99579.79;86067;1295;99200;-78
2022/11/03 03:12:55;;;;;;;60.10;31.70;;;;;;;5.45;79.17;99573.79;85987;1281;22564;-78
2022/11/03 03:15:00;;;;;;;58.90;32.40;;;;;;;5.44;79.07;99578.86;85864;1288;98421;-78
2022/11/03 03:17:11;;;;;;;62.60;30.90;;;;;;;5.39;79.07;99578.60;86205;1283;25316;-78
2022/11/03 03:19:22;;;;;;;65.30;32.60;;;;;;;5.34;79.14;99579.55;85950;1283;22586;-78
2022/11/03 03:21:33;;;;;;;69.80;34.60;;;;;;;5.32;79.12;99582.90;86466;1288;99659;-78
2022/11/03 03:23:39;;;;;;;;;;;;;;;5.32;79.27;99582.38;86000;1291;22466;-79
2022/11/03 03:25:47;;;;;;;66.00;36.40;;;;;;;5.33;79.55;99583.05;85826;1298;25581;-78
2022/11/03 03:27:57;;;;;;;74.70;36.80;;;;;;;5.36;79.60;99577.95;86571;1289;98527;-78
2022/11/03 03:30:06;;;;;;;75.60;39.30;;;;;;;5.38;79.78;99579.48;86093;1283;22494;-78
2022/11/03 03:32:09;;;;;;;78.10;41.60;;;;;;;5.42;79.77;99580.83;86042;1288;22670;-78
2022/11/03 03:34:14;;;;;;;74.10;39.80;;;;;;;5.44;79.90;99583.91;86092;1284;97906;-78
2022/11/03 03:36:18;;;;;;;74.40;38.90;;;;;;;5.46;79.93;99584.58;85891;1290;22554;-79
2022/11/03 03:38:30;;;;;;;71.50;38.00;;;;;;;5.49;79.92;99590.10;85879;1297;22483;-79
2022/11/03 03:40:37;;;;;;;72.60;39.30;;;;;;;5.50;80.03;99588.52;85978;1288;98199;-77
2022/11/03 03:42:41;;;;;;;76.70;38.80;;;;;;;5.49;80.03;99581.39;85936;1288;22501;-78
2022/11/03 03:44:45;;;;;;;77.70;40.60;;;;;;;5.54;79.95;99592.80;86046;1281;24273;-79
2022/11/03 03:46:54;;;;;;;68.50;37.80;;;;;;;5.57;80.07;99588.04;86051;1290;98923;-78
2022/11/03 03:48:56;;;;;;;72.50;38.30;;;;;;;5.58;80.10;99586.27;85957;1288;22485;-77
2022/11/03 03:51:00;;;;;;;66.40;37.20;;;;;;;5.60;79.97;99586.42;85750;1283;98158;-78
2022/11/03 03:53:05;;;;;;;73.40;39.10;;;;;;;5.61;79.99;99586.06;86353;1290;24024;-78
2022/11/03 03:55:17;;;;;;;65.30;36.40;;;;;;;5.61;80.05;99586.39;86049;1283;24873;-77
2022/11/03 03:57:22;;;;;;;57.00;32.20;;;;;;;5.60;79.91;99585.20;85914;1288;97777;-77
2022/11/03 03:59:23;;;;;;;62.10;31.40;;;;;;;5.58;79.88;99581.23;85893;1290;25304;-77
2022/11/03 04:01:25;;;;;;;52.90;28.20;;;;;;;5.57;79.81;99581.08;85986;1296;22483;-78
2022/11/03 04:03:28;;;;;;;56.00;29.90;;;;;;;5.53;79.70;99577.65;85956;1288;98590;-78
2022/11/03 04:05:29;;;;;;;49.40;29.20;;;;;;;5.51;79.69;99577.52;85974;1290;22518;-77
2022/11/03 04:08:05;;;;;;;48.60;30.00;;;;;;;5.47;79.76;99578.29;85926;1288;22694;-78
2022/11/03 04:09:59;;;;;;;50.50;30.00;;;;;;;5.43;79.69;99577.14;85827;1288;99451;-77
2022/11/03 04:23:44;;;;;;;55.60;32.80;;;;;;;5.15;79.40;99578.65;85897;1287;23893;-78
2022/11/03 04:25:56;;;;;;;65.00;32.20;;;;;;;5.03;79.32;99572.58;85920;1288;23653;-79
2022/11/03 04:27:58;;;;;;;71.40;33.80;;;;;;;5.05;79.45;99577.77;85857;1287;99208;-78
2022/11/03 04:30:05;;;;;;;59.60;33.70;;;;;;;5.03;79.60;99574.13;85948;1290;22559;-78
2022/11/03 04:32:14;;;;;;;69.90;33.80;;;;;;;5.01;79.59;99574.35;86020;1291;22717;-77
2022/11/03 04:34:16;;;;;;;60.90;33.20;;;;;;;4.99;79.68;99570.02;86020;1287;99171;-77
2022/11/03 04:36:23;;;;;;;63.90;34.20;;;;;;;4.98;79.72;99571.09;85954;1288;22951;-77
2022/11/03 04:38:28;;;;;;;65.70;35.30;;;;;;;4.97;79.73;99570.75;85870;1287;25312;-78
2022/11/03 04:40:29;;;;;;;66.80;29.00;;;;;;;4.95;79.76;99567.98;85837;1290;98484;-79
2022/11/03 04:42:32;;;;;;;46.60;25.40;;;;;;;4.92;79.62;99569.09;85985;1289;22560;-78
2022/11/03 04:44:33;;;;;;;57.50;24.80;;;;;;;4.87;79.71;99570.73;86025;1281;22479;-77
2022/11/03 04:46:35;;;;;;;43.30;23.80;;;;;;;4.83;79.56;99566.61;85761;1284;99004;-77
2022/11/03 04:48:37;;;;;;;50.50;24.80;;;;;;;4.78;79.70;99565.30;85950;1284;22550;-78
2022/11/03 04:50:39;;;;;;;59.70;23.60;;;;;;;4.76;79.50;99561.32;85959;1291;24929;-78
2022/11/03 04:52:41;;;;;;;45.70;24.10;;;;;;;4.71;79.42;99560.70;85980;1289;100871;-78
2022/11/03 04:54:45;;;;;;;64.10;25.40;;;;;;;4.67;79.41;99564.06;86021;1290;22564;-78
2022/11/03 04:56:47;;;;;;;54.50;26.70;;;;;;;4.64;79.43;99561.67;85795;1290;28144;-78
2022/11/03 04:58:49;;;;;;;74.80;28.70;;;;;;;4.61;79.49;99565.38;85848;1282;97991;-78
2022/11/03 05:00:53;;;;;;;62.60;28.80;;;;;;;4.57;79.40;99568.03;85950;1283;22713;-78
2022/11/03 05:02:55;;;;;;;80.60;31.50;;;;;;;4.54;79.52;99560.58;85796;1288;99711;-79
2022/11/03 05:04:57;;;;;;;72.70;28.70;;;;;;;4.51;79.67;99565.34;86051;1281;22176;-77
2022/11/03 05:06:58;;;;;;;58.80;27.70;;;;;;;4.50;79.70;99569.19;85741;1290;22484;-78
2022/11/03 05:09:11;;;;;;;52.50;26.60;;;;;;;4.48;79.83;99571.64;85863;1291;100236;-78
2022/11/03 05:11:20;;;;;;;45.80;25.80;;;;;;;4.46;79.64;99571.31;85847;1309;22977;-79
2022/11/03 05:13:25;;;;;;;58.80;28.40;;;;;;;4.44;79.77;99568.73;86272;1281;24654;-79
2022/11/03 05:16:03;;;;;;;77.20;33.80;;;;;;;4.40;79.56;99566.02;85952;1290;99166;-79
2022/11/03 05:18:20;;;;;;;72.40;38.00;;;;;;;4.37;79.66;99567.27;85872;1312;23191;-78
2022/11/03 05:20:32;;;;;;;89.10;45.10;;;;;;;4.34;79.66;99566.61;85867;1281;22491;-78
2022/11/03 05:22:36;;;;;;;117.00;59.60;;;;;;;4.31;79.73;99565.61;86034;1290;100384;-78
2022/11/03 05:24:38;;;;;;;160.60;91.40;;;;;;;4.29;79.77;99565.98;86147;1297;22460;-79
2022/11/03 05:26:40;;;;;;;208.60;121.00;;;;;;;4.29;79.73;99568.08;86049;1290;25370;-78
2022/11/03 05:28:45;;;;;;;275.30;173.10;;;;;;;4.28;79.65;99569.66;85851;1290;98289;-79
2022/11/03 05:30:48;;;;;;;231.80;139.60;;;;;;;4.28;79.83;99572.61;86071;1291;22474;-78
2022/11/03 05:32:50;;;;;;;220.70;136.60;;;;;;;4.22;79.64;99571.29;85854;1291;25362;-79
2022/11/03 05:34:54;;;;;;;211.00;129.80;;;;;;;4.16;79.66;99568.23;85986;1281;99010;-80
2022/11/03 05:37:14;;;;;;;206.10;124.50;;;;;;;4.14;79.66;99569.13;85990;1287;25549;-80
2022/11/03 05:39:30;;;;;;;213.50;134.80;;;;;;;4.10;79.51;99566.58;85844;1284;100106;-79
2022/11/03 05:41:31;;;;;;;197.00;121.60;;;;;;;4.03;79.27;99565.77;85976;1288;22514;-78
2022/11/03 05:43:36;;;;;;;178.80;104.70;;;;;;;3.97;79.45;99565.86;85854;1281;25280;-80
2022/11/03 05:45:38;;;;;;;152.20;89.70;;;;;;;3.96;79.48;99569.88;86342;1280;99591;-81
2022/11/03 05:47:40;;;;;;;133.40;74.60;;;;;;;3.96;79.62;99567.60;85892;1291;22580;-80
2022/11/03 05:49:42;;;;;;;108.20;63.30;;;;;;;3.95;79.47;99560.67;86062;1280;22599;-80
2022/11/03 05:51:44;;;;;;;89.20;53.40;;;;;;;3.92;79.45;99560.17;85993;1290;98879;-81
2022/11/03 05:53:49;;;;;;;94.90;43.60;;;;;;;3.88;79.53;99561.80;85926;1290;22815;-80
2022/11/03 05:55:53;;;;;;;79.80;37.20;;;;;;;3.86;79.63;99565.11;85893;1283;24266;-79
2022/11/03 05:57:58;;;;;;;63.60;34.40;;;;;;;3.85;79.59;99567.20;86052;1310;99401;-80
2022/11/03 05:59:59;;;;;;;60.70;32.30;;;;;;;3.85;79.74;99568.61;86491;1288;22575;-79
2022/11/03 06:02:05;;;;;;;55.80;32.80;;;;;;;3.86;79.62;99567.03;85861;1306;24271;-79
2022/11/03 06:04:28;;;;;;;67.60;31.50;;;;;;;3.88;79.75;99562.65;85826;1314;97953;-79
2022/11/03 06:06:37;;;;;;;67.10;29.50;;;;;;;3.88;79.68;99564.22;86037;1299;22523;-77
2022/11/03 06:08:38;;;;;;;90.40;34.10;;;;;;;3.85;79.64;99563.38;86126;1303;22535;-79
2022/11/03 06:10:47;;;;;;;83.10;35.70;;;;;;;3.83;79.72;99563.40;86120;1291;98053;-79
2022/11/03 06:12:49;;;;;;;84.40;37.00;;;;;;;3.82;79.51;99565.86;85970;1295;24778;-79
2022/11/03 06:14:51;;;;;;;83.10;36.10;;;;;;;3.85;79.84;99566.86;86115;1297;22986;-78
2022/11/03 06:17:00;;;;;;;66.30;33.50;;;;;;;3.88;79.83;99565.45;85903;1305;98415;-81
2022/11/03 06:19:16;;;;;;;63.70;31.30;;;;;;;3.90;80.12;99570.80;86166;1310;22606;-79
2022/11/03 06:21:23;;;;;;;55.00;27.40;;;;;;;3.93;80.04;99568.52;85902;1309;98813;-80
2022/11/03 06:23:25;;;;;;;58.50;29.90;;;;;;;3.97;80.08;99572.12;85940;1312;25937;-80
2022/11/03 06:25:31;;;;;;;61.50;28.30;;;;;;;4.02;80.12;99575.70;85934;1304;22585;-78
2022/11/03 06:27:34;;;;;;;72.00;28.60;;;;;;;4.06;80.11;99576.52;85928;1315;97837;-79
2022/11/03 06:29:36;;;;;;;73.70;30.30;;;;;;;4.09;80.18;99581.02;86254;1296;24358;-79
2022/11/03 06:31:38;;;;;;;80.70;29.50;;;;;;;4.13;80.16;99580.43;86440;1291;24389;-78
2022/11/03 06:33:39;;;;;;;69.60;28.70;;;;;;;4.18;80.10;99581.09;86236;1288;98585;-79
2022/11/03 06:35:43;;;;;;;69.60;28.10;;;;;;;4.21;80.21;99579.13;86257;1290;23182;-79
2022/11/03 06:37:45;;;;;;;71.10;29.20;;;;;;;4.22;80.05;99581.90;86360;1289;22566;-78
2022/11/03 06:39:48;;;;;;;67.50;28.40;;;;;;;4.26;80.26;99586.73;86167;1291;98293;-79
2022/11/03 06:41:50;;;;;;;116.20;33.80;;;;;;;4.32;80.29;99585.25;86175;1288;24312;-78
2022/11/03 06:43:53;;;;;;;69.90;28.60;;;;;;;4.38;80.42;99586.22;86103;1288;22633;-76
2022/11/03 06:45:57;;;;;;;74.30;31.00;;;;;;;4.43;80.25;99591.21;86040;1290;97845;-77
2022/11/03 06:48:01;;;;;;;66.70;30.20;;;;;;;4.48;80.33;99589.05;85909;1287;22535;-78
2022/11/03 06:50:19;;;;;;;77.60;36.20;;;;;;;4.54;80.34;99593.66;86092;1281;25874;-78
2022/11/03 06:52:21;;;;;;;72.50;37.20;;;;;;;4.61;80.49;99594.27;85990;1290;99494;-79
2022/11/03 06:54:22;;;;;;;73.80;39.80;;;;;;;4.71;80.62;99594.30;86009;1288;22652;-79
2022/11/03 06:56:30;;;;;;;81.40;39.10;;;;;;;4.79;80.65;99595.75;86078;1288;22432;-78
2022/11/03 06:58:36;;;;;;;90.20;41.60;;;;;;;4.88;80.75;99594.22;85893;1288;99348;-78
2022/11/03 07:00:39;;;;;;;99.90;42.00;;;;;;;4.97;80.88;99588.86;86260;1296;22496;-79
2022/11/03 07:03:04;;;;;;;74.00;39.60;;;;;;;5.07;80.88;99590.10;86180;1290;22569;-79
2022/11/03 07:05:21;;;;;;;83.60;40.90;;;;;;;5.18;80.99;99589.24;86163;1288;22469;-78
2022/11/03 07:07:24;;;;;;;82.20;40.50;;;;;;;5.27;81.06;99584.01;85985;1290;22613;-78
2022/11/03 07:09:26;;;;;;;85.00;41.50;;;;;;;5.37;80.98;99585.26;86109;1288;98011;-77
2022/11/03 07:11:40;;;;;;;79.70;39.40;;;;;;;5.47;80.97;99587.36;86000;1291;22644;-79
2022/11/03 07:13:43;;;;;;;90.00;39.00;;;;;;;5.55;81.16;99583.38;86981;1297;24287;-78
2022/11/03 07:15:45;;;;;;;90.60;37.30;;;;;;;5.66;81.25;99583.71;87221;1291;98199;-78
2022/11/03 07:17:47;;;;;;;108.10;35.00;;;;;;;5.74;81.00;99583.55;87174;1298;22497;-79
2022/11/03 07:19:55;;;;;;;233.00;40.80;;;;;;;5.78;81.01;99573.36;87143;1293;24230;-79
2022/11/03 07:22:04;;;;;;;136.60;35.30;;;;;;;5.91;80.95;99577.30;86610;1290;98247;-78
2022/11/03 07:24:15;;;;;;;252.00;41.50;;;;;;;6.01;81.15;99572.08;86169;1290;22643;-78
2022/11/03 07:26:17;;;;;;;308.30;42.80;;;;;;;6.09;81.12;99572.61;86153;1288;23549;-82
2022/11/03 07:28:33;;;;;;;195.40;35.70;;;;;;;6.16;80.85;99569.50;86112;1284;98517;-81
2022/11/03 07:30:36;;;;;;;98.80;28.70;;;;;;;6.22;80.87;99566.95;86368;1287;23449;-79
2022/11/03 07:32:38;;;;;;;94.60;27.50;;;;;;;6.27;81.02;99564.38;86351;1290;22523;-80
2022/11/03 07:34:40;;;;;;;74.10;27.60;;;;;;;6.36;80.99;99562.30;86127;1289;98716;-82
2022/11/03 07:36:43;;;;;;;70.80;29.00;;;;;;;6.44;80.80;99558.63;86265;1291;22737;-80
2022/11/03 07:38:50;;;;;;;59.60;26.50;;;;;;;6.53;80.93;99555.98;86316;1288;22187;-81
2022/11/03 07:40:53;;;;;;;55.30;27.70;;;;;;;6.62;81.00;99553.14;86189;1295;101068;-80
2022/11/03 07:42:57;;;;;;;64.20;26.10;;;;;;;6.71;81.12;99549.81;86143;1298;500525;-81
2022/11/03 07:44:59;;;;;;;64.50;28.50;;;;;;;6.80;81.10;99545.59;85981;1286;22621;-82
2022/11/03 07:47:02;;;;;;;61.40;29.70;;;;;;;6.91;80.95;99540.77;85959;1284;98601;-80
2022/11/03 07:49:07;;;;;;;71.00;30.60;;;;;;;7.02;81.16;99532.67;86044;1284;25478;-81
2022/11/03 07:51:27;;;;;;;75.10;31.60;;;;;;;7.11;81.18;99530.50;86132;1290;99021;-81
2022/11/03 07:53:38;;;;;;;73.20;32.10;;;;;;;7.26;81.30;99530.80;86415;1290;22614;-81
2022/11/03 07:55:40;;;;;;;62.10;32.70;;;;;;;7.47;81.18;99530.46;86150;1288;22542;-79
2022/11/03 07:57:42;;;;;;;60.30;32.40;;;;;;;7.67;81.42;99527.64;86166;1291;98215;-81
2022/11/03 07:59:48;;;;;;;63.70;33.50;;;;;;;7.87;81.36;99527.80;86212;1291;22585;-81
2022/11/03 08:01:55;;;;;;;67.90;34.30;;;;;;;8.05;81.22;99525.36;86337;1295;23108;-79
2022/11/03 08:04:06;;;;;;;76.40;33.40;;;;;;;8.23;81.00;99516.78;86128;1283;98210;-83
2022/11/03 08:06:08;;;;;;;57.60;28.90;;;;;;;8.41;80.66;99513.08;86136;1290;22589;-79
2022/11/03 08:08:10;;;;;;;62.40;31.00;;;;;;;8.54;80.78;99508.86;86211;1291;22512;-83
2022/11/03 08:10:12;;;;;;;68.60;30.10;;;;;;;8.68;80.70;99507.04;86210;1298;98303;-78
2022/11/03 08:12:14;;;;;;;64.40;30.60;;;;;;;8.79;80.84;99501.59;86390;1290;24723;-81
2022/11/03 08:14:16;;;;;;;60.70;29.40;;;;;;;8.90;80.50;99497.03;86337;1287;22487;-82
2022/11/03 08:16:18;;;;;;;57.10;28.20;;;;;;;9.03;80.58;99495.38;86096;1289;99391;-82
2022/11/03 08:18:20;;;;;;;62.00;30.40;;;;;;;9.17;80.71;99488.95;86337;1287;22830;-84
2022/11/03 08:20:22;;;;;;;51.80;28.70;;;;;;;9.29;80.49;99484.16;86629;1290;22738;-79
2022/11/03 08:22:24;;;;;;;71.60;30.60;;;;;;;9.39;80.59;99483.30;86355;1290;98275;-81
2022/11/03 08:24:26;;;;;;;67.80;28.00;;;;;;;9.49;80.41;99480.29;86130;1293;22486;-80
2022/11/03 08:26:28;;;;;;;58.70;28.80;;;;;;;9.59;80.32;99480.45;86189;1291;22537;-82
2022/11/03 08:28:32;;;;;;;48.60;25.40;;;;;;;9.68;80.34;99480.67;85862;1304;98028;-83
2022/11/03 08:30:34;;;;;;;50.70;24.20;;;;;;;9.79;80.40;99484.65;86197;1284;24388;-80
2022/11/03 08:32:35;;;;;;;61.20;28.10;;;;;;;9.92;80.26;99483.63;86033;1291;22657;-80
2022/11/03 08:34:37;;;;;;;49.70;25.80;;;;;;;10.09;80.46;99480.58;86361;1290;98035;-81
2022/11/03 08:36:39;;;;;;;50.40;25.00;;;;;;;10.21;80.34;99475.89;86239;1288;23839;-83
2022/11/03 08:38:41;;;;;;;61.20;24.70;;;;;;;10.30;80.06;99476.58;86184;1291;22631;-81
2022/11/03 08:40:43;;;;;;;48.60;24.00;;;;;;;10.37;80.04;99474.39;86090;1289;99905;-79
2022/11/03 08:42:44;;;;;;;67.90;24.40;;;;;;;10.48;80.17;99466.62;86057;1280;22528;-77
2022/11/03 08:44:46;;;;;;;53.00;25.50;;;;;;;10.62;80.01;99469.75;86172;1288;22701;-82
2022/11/03 08:46:47;;;;;;;49.30;23.80;;;;;;;10.72;79.89;99463.52;86038;1297;99767;-80
2022/11/03 08:48:49;;;;;;;64.90;23.00;;;;;;;10.85;79.79;99464.59;85860;1284;22510;-79
2022/11/03 08:50:53;;;;;;;52.10;23.60;;;;;;;10.96;79.62;99462.20;86201;1281;23310;-79
2022/11/03 08:52:55;;;;;;;44.00;23.30;;;;;;;11.03;79.44;99457.67;86026;1287;98061;-78
2022/11/03 08:54:57;;;;;;;56.60;24.30;;;;;;;11.07;79.40;99455.58;86418;1285;23360;-82
2022/11/03 08:56:59;;;;;;;42.00;21.40;;;;;;;11.16;79.48;99456.80;86065;1288;22493;-80
2022/11/03 08:59:00;;;;;;;58.80;23.00;;;;;;;11.29;79.39;99457.27;85826;1284;98209;-81
2022/11/03 09:01:02;;;;;;;49.30;21.10;;;;;;;11.38;79.21;99458.31;85778;1288;22505;-78
2022/11/03 09:03:03;;;;;;;51.70;18.10;;;;;;;11.43;79.22;99455.44;85863;1283;25637;-79
2022/11/03 09:05:06;;;;;;;38.10;18.70;;;;;;;11.47;78.91;99449.48;85798;1288;98183;-81
2022/11/03 09:07:08;;;;;;;50.90;17.30;;;;;;;11.52;79.10;99448.71;86002;1291;23068;-81
2022/11/03 09:09:09;;;;;;;63.20;19.20;;;;;;;11.59;78.83;99448.41;85961;1290;25311;-79
2022/11/03 09:11:11;;;;;;;49.60;16.30;;;;;;;11.68;78.86;99447.65;85804;1288;98346;-80
2022/11/03 09:13:13;;;;;;;43.90;15.80;;;;;;;11.73;78.88;99447.05;85927;1288;22546;-77
2022/11/03 09:15:14;;;;;;;49.10;16.40;;;;;;;11.85;78.79;99444.73;85928;1288;98635;-81
2022/11/03 09:17:16;;;;;;;57.50;15.70;;;;;;;11.99;78.72;99442.73;85901;1292;22482;-79
2022/11/03 09:19:21;;;;;;;30.20;15.00;;;;;;;12.09;78.59;99438.77;85915;1291;25412;-80
2022/11/03 09:21:22;;;;;;;39.70;14.90;;;;;;;12.21;78.43;99435.02;86139;1287;98401;-78
2022/11/03 09:23:24;;;;;;;35.90;14.50;;;;;;;12.35;78.27;99433.83;86236;1281;22620;-79
2022/11/03 09:25:26;;;;;;;34.90;14.40;;;;;;;12.44;78.15;99432.52;85946;1291;25367;-81
2022/11/03 09:27:27;;;;;;;34.90;12.80;;;;;;;12.46;77.88;99426.77;86042;1287;98851;-82
2022/11/03 09:29:29;;;;;;;43.10;14.90;;;;;;;12.49;77.60;99427.02;85937;1289;22498;-80
2022/11/03 09:31:31;;;;;;;37.50;14.70;;;;;;;12.49;77.62;99420.46;86090;1291;22673;-80
2022/11/03 09:33:33;;;;;;;39.40;15.40;;;;;;;12.57;77.76;99421.67;86300;1288;98112;-82
2022/11/03 09:35:34;;;;;;;39.20;14.20;;;;;;;12.64;77.48;99422.54;85855;1291;22607;-82
2022/11/03 09:37:37;;;;;;;35.20;15.40;;;;;;;12.72;77.40;99422.48;85901;1296;22534;-80
2022/11/03 09:39:39;;;;;;;29.20;14.50;;;;;;;12.85;77.24;99419.42;85982;1287;98141;-80
2022/11/03 09:41:42;;;;;;;39.20;15.70;;;;;;;12.98;77.34;99417.33;86053;1292;24243;-80
2022/11/03 09:43:44;;;;;;;36.20;16.00;;;;;;;13.17;77.29;99416.03;85982;1287;24206;-79
2022/11/03 09:45:46;;;;;;;44.80;15.60;;;;;;;13.37;77.22;99411.08;86874;1292;97860;-81
2022/11/03 09:47:48;;;;;;;44.10;14.40;;;;;;;13.64;76.81;99407.58;85888;1289;37011;-80
2022/11/03 09:49:50;;;;;;;42.90;16.00;;;;;;;13.96;76.66;99403.00;85673;1295;98882;-80
2022/11/03 09:51:53;;;;;;;32.20;12.90;;;;;;;14.26;76.42;99393.21;86082;1284;25614;-80
2022/11/03 09:53:58;;;;;;;31.40;12.70;;;;;;;14.45;75.97;99395.11;85990;1291;22629;-81
2022/11/03 09:56:00;;;;;;;26.90;13.00;;;;;;;14.65;75.85;99392.77;85967;1289;102400;-81
2022/11/03 09:58:11;;;;;;;28.00;11.60;;;;;;;14.87;75.64;99387.58;86196;1287;22511;-76
2022/11/03 10:00:19;;;;;;;25.20;10.80;;;;;;;15.04;75.13;99384.48;86407;1301;98601;-81